createdAt,value
2023-03-13T00:01:42.318Z,-2.06
2023-03-13T00:04:12.510Z,-2.09
2023-03-13T00:06:44.689Z,-2.16
2023-03-13T00:09:14.842Z,-2.23
2023-03-13T00:11:45.913Z,-2.25
2023-03-13T00:14:15.220Z,-2.15
2023-03-13T00:16:43.748Z,-2.13
2023-03-13T00:19:12.383Z,-2.19
2023-03-13T00:21:41.574Z,-2.21
2023-03-13T00:24:17.740Z,-2.11
2023-03-13T00:26:46.071Z,-2.10
2023-03-13T00:29:14.236Z,-2.15
2023-03-13T00:31:47.349Z,-2.24
2023-03-13T00:34:18.006Z,-2.21
2023-03-13T00:36:46.948Z,-2.10
2023-03-13T00:39:24.658Z,-2.10
2023-03-13T00:41:53.216Z,-2.16
2023-03-13T00:44:23.637Z,-2.22
2023-03-13T00:46:52.034Z,-2.20
2023-03-13T00:49:20.332Z,-2.09
2023-03-13T00:51:48.605Z,-2.10
2023-03-13T00:54:16.545Z,-2.16
2023-03-13T00:56:45.338Z,-2.20
2023-03-13T00:59:14.625Z,-2.13
2023-03-13T01:01:45.815Z,-2.15
2023-03-13T01:04:14.580Z,-2.23
2023-03-13T01:06:45.694Z,-2.30
2023-03-13T01:09:15.541Z,-2.36
2023-03-13T01:11:45.944Z,-2.31
2023-03-13T01:14:17.458Z,-2.23
2023-03-13T01:16:48.721Z,-2.28
2023-03-13T01:19:17.211Z,-2.35
2023-03-13T01:21:47.193Z,-2.42
2023-03-13T01:24:16.946Z,-2.45
2023-03-13T01:26:50.727Z,-2.38
2023-03-13T01:29:20.572Z,-2.39
2023-03-13T01:31:49.243Z,-2.46
2023-03-13T01:34:23.374Z,-2.52
2023-03-13T01:36:55.183Z,-2.56
2023-03-13T01:39:23.490Z,-2.46
2023-03-13T01:41:56.795Z,-2.43
2023-03-13T01:44:26.442Z,-2.48
2023-03-13T01:46:55.765Z,-2.53
2023-03-13T01:49:33.700Z,-2.56
2023-03-13T01:52:08.986Z,-2.47
2023-03-13T01:54:56.256Z,-2.47
2023-03-13T01:57:30.067Z,-2.54
2023-03-13T02:00:16.479Z,-2.62
2023-03-13T02:02:50.596Z,-2.69
2023-03-13T02:05:23.066Z,-2.65
2023-03-13T02:07:56.140Z,-2.55
2023-03-13T02:10:25.809Z,-2.58
2023-03-13T02:13:01.955Z,-2.63
2023-03-13T02:15:33.466Z,-2.66
2023-03-13T02:18:01.457Z,-2.67
2023-03-13T02:20:33.584Z,-2.56
2023-03-13T02:23:04.037Z,-2.54
2023-03-13T02:25:49.028Z,-2.61
2023-03-13T02:28:25.597Z,-2.65
2023-03-13T02:30:58.946Z,-2.67
2023-03-13T02:33:29.496Z,-2.57
2023-03-13T02:36:00.157Z,-2.56
2023-03-13T02:38:30.480Z,-2.60
2023-03-13T02:40:59.509Z,-2.67
2023-03-13T02:43:31.571Z,-2.70
2023-03-13T02:46:17.648Z,-2.61
2023-03-13T02:48:54.952Z,-2.63
2023-03-13T02:51:42.221Z,-2.68
2023-03-13T02:54:25.158Z,-2.76
2023-03-13T02:56:56.075Z,-2.79
2023-03-13T02:59:25.273Z,-2.69
2023-03-13T03:01:53.320Z,-2.64
2023-03-13T03:04:22.402Z,-2.69
2023-03-13T03:06:54.400Z,-2.77
2023-03-13T03:09:23.170Z,-2.82
2023-03-13T03:11:56.400Z,-2.87
2023-03-13T03:14:27.080Z,-2.81
2023-03-13T03:16:55.925Z,-2.74
2023-03-13T03:19:31.547Z,-2.78
2023-03-13T03:22:00.273Z,-2.84
2023-03-13T03:24:28.592Z,-2.88
2023-03-13T03:26:56.727Z,-2.88
2023-03-13T03:29:28.361Z,-2.78
2023-03-13T03:31:57.144Z,-2.79
2023-03-13T03:34:26.188Z,-2.84
2023-03-13T03:36:56.351Z,-2.90
2023-03-13T03:39:24.974Z,-2.95
2023-03-13T03:41:53.004Z,-2.95
2023-03-13T03:44:22.546Z,-2.85
2023-03-13T03:46:58.724Z,-2.82
2023-03-13T03:49:28.243Z,-2.88
2023-03-13T03:51:56.668Z,-2.94
2023-03-13T03:54:29.545Z,-3.00
2023-03-13T03:56:58.306Z,-3.04
2023-03-13T03:59:32.870Z,-2.94
2023-03-13T04:02:08.871Z,-2.92
2023-03-13T04:04:37.626Z,-3.00
2023-03-13T04:07:10.220Z,-3.06
2023-03-13T04:09:38.365Z,-3.12
2023-03-13T04:12:09.242Z,-3.12
2023-03-13T04:14:45.592Z,-3.04
2023-03-13T04:17:17.308Z,-3.09
2023-03-13T04:19:48.317Z,-3.16
2023-03-13T04:22:16.699Z,-3.22
2023-03-13T04:24:50.360Z,-3.15
2023-03-13T04:27:19.613Z,-3.08
2023-03-13T04:29:48.873Z,-3.12
2023-03-13T04:32:36.741Z,-3.18
2023-03-13T04:35:25.558Z,-3.17
2023-03-13T04:38:08.327Z,-3.02
2023-03-13T04:40:58.214Z,-3.00
2023-03-13T04:43:30.134Z,-3.03
2023-03-13T04:46:08.921Z,-3.04
2023-03-13T04:48:56.266Z,-2.91
2023-03-13T04:51:44.202Z,-2.83
2023-03-13T04:54:27.561Z,-2.84
2023-03-13T04:57:20.947Z,-2.82
2023-03-13T05:00:12.661Z,-2.71
2023-03-13T05:03:00.637Z,-2.56
2023-03-13T05:05:49.776Z,-2.54
2023-03-13T05:08:35.787Z,-2.57
2023-03-13T05:11:23.269Z,-2.56
2023-03-13T05:14:16.757Z,-2.39
2023-03-13T05:17:13.034Z,-2.34
2023-03-13T05:19:58.049Z,-2.35
2023-03-13T05:22:58.518Z,-2.35
2023-03-13T05:25:35.819Z,-2.26
2023-03-13T05:28:17.410Z,-2.10
2023-03-13T05:32:34.685Z,-2.04
2023-03-13T05:35:15.653Z,-2.01
2023-03-13T05:38:00.271Z,-1.95
2023-03-13T05:40:36.747Z,-1.78
2023-03-13T05:43:03.380Z,-1.70
2023-03-13T05:45:53.552Z,-1.67
2023-03-13T05:48:41.633Z,-1.60
2023-03-13T05:51:25.907Z,-1.51
2023-03-13T05:54:18.691Z,-1.27
2023-03-13T05:57:08.366Z,-1.15
2023-03-13T05:59:45.279Z,-1.08
2023-03-13T06:02:41.151Z,-1.01
2023-03-13T06:05:14.614Z,-0.93
2023-03-13T06:07:41.697Z,-0.86
2023-03-13T06:10:09.507Z,-0.70
2023-03-13T06:12:36.416Z,-0.55
2023-03-13T06:15:06.969Z,-0.57
2023-03-13T06:17:52.732Z,-0.66
2023-03-13T06:20:19.450Z,-0.70
2023-03-13T06:22:52.076Z,-0.75
2023-03-13T06:25:19.240Z,-0.81
2023-03-13T06:27:45.828Z,-0.85
2023-03-13T06:30:13.291Z,-0.88
2023-03-13T06:32:40.323Z,-0.79
2023-03-13T06:35:08.618Z,-0.70
2023-03-13T06:37:35.962Z,-0.68
2023-03-13T06:40:04.411Z,-0.63
2023-03-13T06:42:31.685Z,-0.54
2023-03-13T06:44:58.347Z,-0.47
2023-03-13T06:47:25.591Z,-0.28
2023-03-13T06:49:52.340Z,-0.13
2023-03-13T06:52:20.273Z,-0.08
2023-03-13T06:54:48.052Z,-0.03
2023-03-13T06:57:14.759Z,0.01
2023-03-13T06:59:42.257Z,0.04
2023-03-13T07:02:12.312Z,0.10
2023-03-13T07:04:39.221Z,0.26
2023-03-13T07:07:06.167Z,0.41
2023-03-13T07:09:33.397Z,0.47
2023-03-13T07:12:02.820Z,0.50
2023-03-13T07:14:29.699Z,0.53
2023-03-13T07:16:58.497Z,0.57
2023-03-13T07:19:26.860Z,0.62
2023-03-13T07:21:53.753Z,0.71
2023-03-13T07:24:23.240Z,0.88
2023-03-13T07:27:04.143Z,0.96
2023-03-13T07:29:33.868Z,1.00
2023-03-13T07:32:01.051Z,1.04
2023-03-13T07:34:27.936Z,1.08
2023-03-13T07:36:55.673Z,1.13
2023-03-13T07:39:22.662Z,1.20
2023-03-13T07:41:49.683Z,1.31
2023-03-13T07:44:17.711Z,1.42
2023-03-13T07:46:45.428Z,1.50
2023-03-13T07:49:12.568Z,1.51
2023-03-13T07:51:43.914Z,1.53
2023-03-13T07:54:15.367Z,1.60
2023-03-13T07:56:42.129Z,1.68
2023-03-13T07:59:09.420Z,1.78
2023-03-13T08:01:37.084Z,1.86
2023-03-13T08:04:04.607Z,1.95
2023-03-13T08:06:40.496Z,2.01
2023-03-13T08:09:08.601Z,2.09
2023-03-13T08:11:35.730Z,2.20
2023-03-13T08:14:02.820Z,2.30
2023-03-13T08:16:33.709Z,2.38
2023-03-13T08:19:00.565Z,2.42
2023-03-13T08:21:29.963Z,2.39
2023-03-13T08:24:02.034Z,2.34
2023-03-13T08:26:32.808Z,2.32
2023-03-13T08:29:00.994Z,2.34
2023-03-13T08:31:32.883Z,2.36
2023-03-13T08:33:59.977Z,2.38
2023-03-13T08:36:31.630Z,2.37
2023-03-13T08:39:01.214Z,2.40
2023-03-13T08:41:29.824Z,2.45
2023-03-13T08:43:57.344Z,2.54
2023-03-13T08:46:25.000Z,2.64
2023-03-13T08:48:53.226Z,2.66
2023-03-13T08:51:21.299Z,2.66
2023-03-13T08:53:48.787Z,2.70
2023-03-13T08:56:24.869Z,2.78
2023-03-13T08:58:53.375Z,2.87
2023-03-13T09:01:21.288Z,2.93
2023-03-13T09:03:49.246Z,3.04
2023-03-13T09:06:19.307Z,3.12
2023-03-13T09:08:47.054Z,3.15
2023-03-13T09:11:18.337Z,3.20
2023-03-13T09:13:48.872Z,3.29
2023-03-13T09:16:22.831Z,3.39
2023-03-13T09:18:51.033Z,3.51
2023-03-13T09:21:19.708Z,3.61
2023-03-13T09:23:47.430Z,3.71
2023-03-13T09:26:14.313Z,3.79
2023-03-13T09:28:44.736Z,3.86
2023-03-13T09:31:19.415Z,3.97
2023-03-13T09:33:47.468Z,4.12
2023-03-13T09:36:14.631Z,4.27
2023-03-13T09:38:41.675Z,4.39
2023-03-13T09:41:17.223Z,4.44
2023-03-13T09:43:50.091Z,4.47
2023-03-13T09:46:26.172Z,4.46
2023-03-13T09:49:00.790Z,4.48
2023-03-13T09:51:38.226Z,4.59
2023-03-13T09:54:19.395Z,4.79
2023-03-13T09:56:56.132Z,5.03
2023-03-13T09:59:36.819Z,5.23
2023-03-13T10:02:03.826Z,5.44
2023-03-13T10:04:41.122Z,5.65
2023-03-13T10:07:11.148Z,5.84
2023-03-13T10:09:40.309Z,5.99
2023-03-13T10:12:20.854Z,6.08
2023-03-13T10:15:03.747Z,6.05
2023-03-13T10:17:32.812Z,6.07
2023-03-13T10:20:10.112Z,6.10
2023-03-13T10:22:37.306Z,6.13
2023-03-13T10:25:23.953Z,6.20
2023-03-13T10:27:51.270Z,6.24
2023-03-13T10:30:23.478Z,6.29
2023-03-13T10:32:50.352Z,6.32
2023-03-13T10:35:22.185Z,6.32
2023-03-13T10:37:48.877Z,6.59
2023-03-13T10:40:25.185Z,7.17
2023-03-13T10:42:59.051Z,7.96
2023-03-13T10:45:31.548Z,8.69
2023-03-13T10:48:20.971Z,9.23
2023-03-13T10:50:56.814Z,9.97
2023-03-13T10:53:30.274Z,10.24
2023-03-13T10:56:02.886Z,10.07
2023-03-13T10:58:45.571Z,10.03
2023-03-13T11:01:18.448Z,10.13
2023-03-13T11:03:49.506Z,10.17
2023-03-13T11:06:25.746Z,10.12
2023-03-13T11:08:59.356Z,10.06
2023-03-13T11:11:30.416Z,10.10
2023-03-13T11:14:07.880Z,10.21
2023-03-13T11:16:42.240Z,10.47
2023-03-13T11:19:28.701Z,10.88
2023-03-13T11:22:13.951Z,11.07
2023-03-13T11:24:45.750Z,10.70
2023-03-13T11:27:34.567Z,10.19
2023-03-13T11:30:23.187Z,9.55
2023-03-13T11:33:22.122Z,9.06
2023-03-13T11:35:53.654Z,8.58
2023-03-13T11:38:27.088Z,8.21
2023-03-13T11:41:05.803Z,7.99
2023-03-13T11:43:41.100Z,7.89
2023-03-13T11:46:14.913Z,7.87
2023-03-13T11:48:53.799Z,7.93
2023-03-13T11:51:52.962Z,7.94
2023-03-13T11:55:05.015Z,7.94
2023-03-13T11:58:06.883Z,8.02
2023-03-13T12:01:14.106Z,8.30
2023-03-13T12:03:58.261Z,8.69
2023-03-13T12:06:37.551Z,9.00
2023-03-13T12:09:09.886Z,9.25
2023-03-13T12:12:03.994Z,9.43
2023-03-13T12:14:50.083Z,9.47
2023-03-13T12:17:38.294Z,9.26
2023-03-13T12:20:11.232Z,9.03
2023-03-13T12:22:44.911Z,8.92
2023-03-13T12:25:12.556Z,8.93
2023-03-13T12:27:41.963Z,8.80
2023-03-13T12:30:18.409Z,8.58
2023-03-13T12:32:49.717Z,8.40
2023-03-13T12:35:28.277Z,8.26
2023-03-13T12:38:20.544Z,8.12
2023-03-13T12:40:52.641Z,7.91
2023-03-13T12:43:30.374Z,7.66
2023-03-13T12:46:38.529Z,7.42
2023-03-13T12:49:24.736Z,7.22
2023-03-13T12:52:14.858Z,7.12
2023-03-13T12:54:47.716Z,7.03
2023-03-13T12:57:51.725Z,6.97
2023-03-13T13:00:21.182Z,6.92
2023-03-13T13:02:47.760Z,6.89
2023-03-13T13:05:18.616Z,6.87
2023-03-13T13:07:53.048Z,6.84
2023-03-13T13:10:25.770Z,6.81
2023-03-13T13:13:14.367Z,6.84
2023-03-13T13:16:01.253Z,6.85
2023-03-13T13:18:29.801Z,6.87
2023-03-13T13:21:02.540Z,6.86
2023-03-13T13:23:41.498Z,6.85
2023-03-13T13:26:26.323Z,6.82
2023-03-13T13:28:53.583Z,6.76
2023-03-13T13:31:59.679Z,6.69
2023-03-13T13:34:33.888Z,6.64
2023-03-13T13:37:01.374Z,6.62
2023-03-13T13:39:28.115Z,6.61
2023-03-13T13:41:55.446Z,6.60
2023-03-13T13:44:28.524Z,6.58
2023-03-13T13:46:55.966Z,6.54
2023-03-13T13:49:35.029Z,6.50
2023-03-13T13:52:04.626Z,6.47
2023-03-13T13:54:33.975Z,6.49
2023-03-13T13:57:12.174Z,6.50
2023-03-13T13:59:42.540Z,6.48
2023-03-13T14:02:10.358Z,6.42
2023-03-13T14:04:38.637Z,6.37
2023-03-13T14:07:06.141Z,6.34
2023-03-13T14:09:49.533Z,6.31
2023-03-13T14:12:29.979Z,6.28
2023-03-13T14:15:13.371Z,6.25
2023-03-13T14:17:50.824Z,6.23
2023-03-13T14:20:33.798Z,6.22
2023-03-13T14:23:04.270Z,6.20
2023-03-13T14:25:51.193Z,6.19
2023-03-13T14:28:21.991Z,6.15
2023-03-13T14:30:50.405Z,6.13
2023-03-13T14:33:17.355Z,6.13
2023-03-13T14:35:44.878Z,6.10
2023-03-13T14:38:22.391Z,6.09
2023-03-13T14:40:50.469Z,6.09
2023-03-13T14:43:37.642Z,6.08
2023-03-13T14:46:15.535Z,6.09
2023-03-13T14:48:42.826Z,6.10
2023-03-13T14:51:15.728Z,6.09
2023-03-13T14:54:12.619Z,6.09
2023-03-13T14:56:42.600Z,6.07
2023-03-13T14:59:17.596Z,6.02
2023-03-13T15:01:45.540Z,6.04
2023-03-13T15:04:13.316Z,6.03
2023-03-13T15:06:42.491Z,6.03
2023-03-13T15:09:09.497Z,6.01
2023-03-13T15:11:59.579Z,6.00
2023-03-13T15:14:40.837Z,5.98
2023-03-13T15:17:24.287Z,5.97
2023-03-13T15:19:55.745Z,5.96
2023-03-13T15:22:32.603Z,5.95
2023-03-13T15:25:06.400Z,5.94
2023-03-13T15:27:46.036Z,5.93
2023-03-13T15:30:17.231Z,5.91
2023-03-13T15:32:46.538Z,5.89
2023-03-13T15:35:32.776Z,5.90
2023-03-13T15:38:00.963Z,5.90
2023-03-13T15:40:28.088Z,5.91
2023-03-13T15:42:54.891Z,5.90
2023-03-13T15:45:22.142Z,5.88
2023-03-13T15:47:49.412Z,5.86
2023-03-13T15:50:18.181Z,5.86
2023-03-13T15:52:44.862Z,5.86
2023-03-13T15:55:16.748Z,5.85
2023-03-13T15:57:48.661Z,5.84
2023-03-13T16:00:24.284Z,5.83
2023-03-13T16:02:51.400Z,5.81
2023-03-13T16:05:18.618Z,5.81
2023-03-13T16:07:47.865Z,5.79
2023-03-13T16:10:19.998Z,5.79
2023-03-13T16:12:48.386Z,5.79
2023-03-13T16:15:16.735Z,5.79
2023-03-13T16:17:43.623Z,5.79
2023-03-13T16:20:17.930Z,5.79
2023-03-13T16:22:45.962Z,5.78
2023-03-13T16:25:13.887Z,5.77
2023-03-13T16:27:43.210Z,5.78
2023-03-13T16:30:17.946Z,5.80
2023-03-13T16:32:48.057Z,5.80
2023-03-13T16:35:14.633Z,5.82
2023-03-13T16:37:41.305Z,5.82
2023-03-13T16:40:16.626Z,5.82
2023-03-13T16:42:43.289Z,5.81
2023-03-13T16:45:14.396Z,5.81
2023-03-13T16:47:42.338Z,5.81
2023-03-13T16:50:17.838Z,5.82
2023-03-13T16:52:44.650Z,5.81
2023-03-13T16:55:11.216Z,5.80
2023-03-13T16:57:38.512Z,5.79
2023-03-13T17:00:19.828Z,5.80
2023-03-13T17:02:47.625Z,5.79
2023-03-13T17:05:15.535Z,5.78
2023-03-13T17:07:47.294Z,5.77
2023-03-13T17:10:30.693Z,5.76
2023-03-13T17:12:58.623Z,5.75
2023-03-13T17:15:25.228Z,5.76
2023-03-13T17:17:53.536Z,5.75
2023-03-13T17:20:26.917Z,5.75
2023-03-13T17:22:55.650Z,5.74
2023-03-13T17:25:22.788Z,5.72
2023-03-13T17:27:51.604Z,5.70
2023-03-13T17:30:26.578Z,5.67
2023-03-13T17:32:53.882Z,5.63
2023-03-13T17:35:21.362Z,5.60
2023-03-13T17:37:48.477Z,5.56
2023-03-13T17:40:26.203Z,5.51
2023-03-13T17:42:55.548Z,5.46
2023-03-13T17:45:22.387Z,5.44
2023-03-13T17:50:22.868Z,5.41
2023-03-13T17:52:50.537Z,5.36
2023-03-13T17:55:17.459Z,5.34
2023-03-13T17:57:44.237Z,5.31
2023-03-13T18:00:33.179Z,5.29
2023-03-13T18:03:00.212Z,5.28
2023-03-13T18:05:27.831Z,5.27
2023-03-13T18:07:55.582Z,5.24
2023-03-13T18:10:23.642Z,5.22
2023-03-13T18:12:50.944Z,5.19
2023-03-13T18:15:18.881Z,5.19
2023-03-13T18:17:50.467Z,5.17
2023-03-13T18:20:20.342Z,5.17
2023-03-13T18:22:47.516Z,5.16
2023-03-13T18:25:14.558Z,5.15
2023-03-13T18:27:43.340Z,5.13
2023-03-13T18:30:18.446Z,5.13
2023-03-13T18:32:46.745Z,5.12
2023-03-13T18:35:13.999Z,5.11
2023-03-13T18:37:45.108Z,5.10
2023-03-13T18:40:22.818Z,5.09
2023-03-13T18:42:50.456Z,5.06
2023-03-13T18:45:19.573Z,5.04
2023-03-13T18:47:47.558Z,5.02
2023-03-13T18:50:19.836Z,4.99
2023-03-13T18:52:47.045Z,4.95
2023-03-13T18:55:13.973Z,4.91
2023-03-13T18:57:44.603Z,4.88
2023-03-13T19:00:23.824Z,4.85
2023-03-13T19:02:50.931Z,4.82
2023-03-13T19:05:18.489Z,4.80
2023-03-13T19:07:48.016Z,4.81
2023-03-13T19:10:26.170Z,4.81
2023-03-13T19:12:56.198Z,4.79
2023-03-13T19:15:25.332Z,4.79
2023-03-13T19:17:55.615Z,4.79
2023-03-13T19:20:27.016Z,4.79
2023-03-13T19:22:55.973Z,4.77
2023-03-13T19:25:23.256Z,4.75
2023-03-13T19:27:51.145Z,4.72
2023-03-13T19:30:20.763Z,4.72
2023-03-13T19:32:49.580Z,4.71
2023-03-13T19:35:18.212Z,4.72
2023-03-13T19:37:46.868Z,4.71
2023-03-13T19:40:25.252Z,4.70
2023-03-13T19:42:52.346Z,4.67
2023-03-13T19:45:21.106Z,4.65
2023-03-13T19:47:50.187Z,4.63
2023-03-13T19:50:22.590Z,4.60
2023-03-13T19:52:49.674Z,4.58
2023-03-13T19:55:16.550Z,4.56
2023-03-13T19:57:43.790Z,4.55
2023-03-13T20:00:19.214Z,4.56
2023-03-13T20:02:45.876Z,4.55
2023-03-13T20:05:13.263Z,4.54
2023-03-13T20:07:40.628Z,4.51
2023-03-13T20:10:08.210Z,4.49
2023-03-13T20:12:35.411Z,4.45
2023-03-13T20:15:04.759Z,4.44
2023-03-13T20:17:31.941Z,4.41
2023-03-13T20:20:00.213Z,4.39
2023-03-13T20:22:26.869Z,4.34
2023-03-13T20:24:55.475Z,4.33
2023-03-13T20:27:23.516Z,4.30
2023-03-13T20:29:50.244Z,4.27
2023-03-13T20:32:17.060Z,4.26
2023-03-13T20:34:44.871Z,4.23
2023-03-13T20:37:11.947Z,4.22
2023-03-13T20:39:43.176Z,4.20
2023-03-13T20:42:10.064Z,4.18
2023-03-13T20:44:36.864Z,4.16
2023-03-13T20:47:04.162Z,4.14
2023-03-13T20:49:31.041Z,4.13
2023-03-13T20:51:57.635Z,4.12
2023-03-13T20:54:24.228Z,4.11
2023-03-13T20:56:50.748Z,4.12
2023-03-13T20:59:17.430Z,4.10
2023-03-13T21:01:44.147Z,4.08
2023-03-13T21:04:12.718Z,4.08
2023-03-13T21:06:40.104Z,4.06
2023-03-13T21:09:10.331Z,4.05
2023-03-13T21:11:37.676Z,4.05
2023-03-13T21:14:05.653Z,4.03
2023-03-13T21:16:33.735Z,4.01
2023-03-13T21:19:04.661Z,4.00
2023-03-13T21:21:32.844Z,3.98
2023-03-13T21:24:05.905Z,3.97
2023-03-13T21:26:34.215Z,3.96
2023-03-13T21:29:00.915Z,3.95
2023-03-13T21:31:29.392Z,3.94
2023-03-13T21:33:56.764Z,3.93
2023-03-13T21:36:24.434Z,3.91
2023-03-13T21:38:51.892Z,3.90
2023-03-13T21:41:23.748Z,3.89
2023-03-13T21:43:57.857Z,3.88
2023-03-13T21:46:24.862Z,3.87
2023-03-13T21:48:51.961Z,3.85
2023-03-13T21:51:18.739Z,3.84
2023-03-13T21:53:49.048Z,3.85
2023-03-13T21:56:16.869Z,3.86
2023-03-13T21:58:44.840Z,3.87
2023-03-13T22:01:12.252Z,3.88
2023-03-13T22:03:39.363Z,3.88
2023-03-13T22:06:17.143Z,3.90
2023-03-13T22:08:50.544Z,3.90
2023-03-13T22:11:22.783Z,3.89
2023-03-13T22:13:52.152Z,3.88
2023-03-13T22:16:20.469Z,3.87
2023-03-13T22:18:50.938Z,3.85
2023-03-13T22:21:17.932Z,3.83
2023-03-13T22:23:45.450Z,3.83
2023-03-13T22:26:14.115Z,3.82
2023-03-13T22:28:41.166Z,3.82
2023-03-13T22:31:09.241Z,3.82
2023-03-13T22:33:36.241Z,3.81
2023-03-13T22:36:03.937Z,3.80
2023-03-13T22:38:35.538Z,3.81
2023-03-13T22:41:05.223Z,3.82
2023-03-13T22:43:34.780Z,3.83
2023-03-13T22:46:04.456Z,3.84
2023-03-13T22:48:31.492Z,3.84
2023-03-13T22:51:06.644Z,3.85
2023-03-13T22:53:36.360Z,3.84
2023-03-13T22:56:05.824Z,3.83
2023-03-13T22:58:35.021Z,3.81
2023-03-13T23:01:11.825Z,3.80
2023-03-13T23:03:40.242Z,3.80
2023-03-13T23:06:09.217Z,3.79
2023-03-13T23:08:37.197Z,3.78
2023-03-13T23:11:04.963Z,3.76
2023-03-13T23:13:32.310Z,3.75
2023-03-13T23:16:00.517Z,3.74
2023-03-13T23:18:27.966Z,3.74
2023-03-13T23:20:54.841Z,3.75
2023-03-13T23:23:21.726Z,3.74
2023-03-13T23:25:49.066Z,3.72
2023-03-13T23:28:18.180Z,3.73
2023-03-13T23:30:45.359Z,3.74
2023-03-13T23:33:13.818Z,3.73
2023-03-13T23:35:48.950Z,3.74
2023-03-13T23:38:17.837Z,3.75
2023-03-13T23:40:46.001Z,3.76
2023-03-13T23:43:12.566Z,3.77
2023-03-13T23:45:39.173Z,3.77
2023-03-13T23:48:06.617Z,3.77
2023-03-13T23:50:33.417Z,3.75
2023-03-13T23:53:00.368Z,3.73
2023-03-13T23:55:27.677Z,3.70
2023-03-13T23:57:59.363Z,3.68
